Portada
METAR-TAF:

METAR-TAF

Aeroports :

Tsingtao, Xina

latitud: 36-04N, longitud: 120-20E, altitud: 77 m

Observació

L'informe es va fer fa 51 minuts, a les 23:00 UTC
Vent 4 kt del Est/Nord-Est, variant entre Nord/Nord-Est i Est
Temperatura 10°C
Humitat 87%
Pressió 1024 hPa
Visibilitat 10 km o més
Cel ennuvolat a una alçada de 5000 ft

METAR: ZSQD 212300Z 07002MPS 020V090 9999 BKN050 10/08 Q1024 NOSIG

Hora: 07:51 (23:51 UTC)

Pronòstic

L'informe es va fer fa 4 hores i 46 minuts, a les 19:05 UTC
Pronòstic vàlid del 22 a les 00 UTC al 22 a les 24 UTC
Vent 6 kt del Sud/Sud-Est
Visibilitat: 6000 m
Núvols disperses a una alçada de 3000 ft

TAF: ZSQD 211905Z 2200/2224 16003MPS 6000 SCT030 TX18/2206Z TN08/2221Z

Observacions i pronòstics meteorològics de més de 4000 aeroports (METAR i TAF).

Les estacions disponibles són els punts grocs i vermells al mapa.

Posi el ratolí al punt desitjat per veure el nom de l'estació.

Feu clic per veure les observacions i els pronòstics meteorològics.

Per canviar el mapa: feu clic els botons verds amb una creu de color negre per apropar; al botó verd amb un guió per allunyar la imatge; o en les fletxes verdes per a mapes adjacents.


METAR-TAF: